createdAt,value
2018-05-01T00:01:26.302Z,0.60
2018-05-01T00:03:53.692Z,0.70
2018-05-01T00:06:21.108Z,0.80
2018-05-01T00:08:48.492Z,0.60
2018-05-01T00:11:15.868Z,0.70
2018-05-01T00:13:43.341Z,0.57
2018-05-01T00:16:10.822Z,0.70
2018-05-01T00:18:38.260Z,0.70
2018-05-01T00:21:05.644Z,0.57
2018-05-01T00:23:33.073Z,0.60
2018-05-01T00:26:00.457Z,0.50
2018-05-01T00:28:27.885Z,0.50
2018-05-01T00:30:55.264Z,0.70
2018-05-01T00:33:22.657Z,0.63
2018-05-01T00:35:50.049Z,0.60
2018-05-01T00:38:18.118Z,0.50
2018-05-01T00:40:45.504Z,0.63
2018-05-01T00:43:13.515Z,0.60
2018-05-01T00:45:41.001Z,0.80
2018-05-01T00:48:08.389Z,0.60
2018-05-01T00:50:35.784Z,0.80
2018-05-01T00:53:03.195Z,0.57
2018-05-01T00:55:30.600Z,0.53
2018-05-01T00:57:58.069Z,0.80
2018-05-01T01:00:25.469Z,0.70
2018-05-01T01:02:52.890Z,0.87
2018-05-01T01:05:20.312Z,0.80
2018-05-01T01:07:47.720Z,0.70
2018-05-01T01:10:15.121Z,0.60
2018-05-01T01:12:42.501Z,0.57
2018-05-01T01:15:09.961Z,0.50
2018-05-01T01:17:37.447Z,0.80
2018-05-01T01:20:04.857Z,0.60
2018-05-01T01:22:32.346Z,0.80
2018-05-01T01:24:59.728Z,0.50
2018-05-01T01:27:27.164Z,0.80
2018-05-01T01:29:54.620Z,0.60
2018-05-01T01:32:21.998Z,1.17
2018-05-01T01:34:49.389Z,0.57
2018-05-01T01:37:16.264Z,0.50
2018-05-01T01:39:43.117Z,0.80
2018-05-01T01:44:51.056Z,0.60
2018-05-01T01:47:17.904Z,0.70
2018-05-01T01:49:44.752Z,0.50
2018-05-01T01:52:11.656Z,0.53
2018-05-01T01:54:38.524Z,0.50
2018-05-01T01:57:05.357Z,0.60
2018-05-01T01:59:32.204Z,0.80
2018-05-01T02:01:59.053Z,0.50
2018-05-01T02:04:25.921Z,0.60
2018-05-01T02:06:52.792Z,0.87
2018-05-01T02:09:19.669Z,0.60
2018-05-01T02:11:46.517Z,0.60
2018-05-01T02:14:13.368Z,0.60
2018-05-01T02:16:40.214Z,0.50
2018-05-01T02:19:07.069Z,0.50
2018-05-01T02:21:33.986Z,0.53
2018-05-01T02:24:00.829Z,0.60
2018-05-01T02:26:27.757Z,0.70
2018-05-01T02:28:54.613Z,0.60
2018-05-01T02:31:21.541Z,0.60
2018-05-01T02:33:48.488Z,0.70
2018-05-01T02:36:15.345Z,0.60
2018-05-01T02:38:42.190Z,0.67
2018-05-01T02:41:09.132Z,0.57
2018-05-01T02:43:35.909Z,0.60
2018-05-01T02:46:02.801Z,0.60
2018-05-01T02:48:29.718Z,0.60
2018-05-01T02:50:56.663Z,0.50
2018-05-01T02:53:23.575Z,0.60
2018-05-01T02:55:50.423Z,0.50
2018-05-01T02:58:17.294Z,0.50
2018-05-01T03:00:44.147Z,0.50
2018-05-01T03:03:10.997Z,1.90
2018-05-01T03:05:37.841Z,0.60
2018-05-01T03:08:04.682Z,0.60
2018-05-01T03:10:31.536Z,0.50
2018-05-01T03:12:58.441Z,0.50
2018-05-01T03:15:25.395Z,0.47
2018-05-01T03:17:52.234Z,0.43
2018-05-01T03:20:19.077Z,0.60
2018-05-01T03:22:45.921Z,0.50
2018-05-01T03:25:12.768Z,0.47
2018-05-01T03:27:39.701Z,0.50
2018-05-01T03:30:06.553Z,0.60
2018-05-01T03:32:33.398Z,0.50
2018-05-01T03:35:00.353Z,0.60
2018-05-01T03:37:27.292Z,0.60
2018-05-01T03:39:54.800Z,0.60
2018-05-01T03:42:21.662Z,0.53
2018-05-01T03:44:48.540Z,0.60
2018-05-01T03:47:15.414Z,0.60
2018-05-01T03:49:42.290Z,0.50
2018-05-01T03:52:09.137Z,0.50
2018-05-01T03:54:35.999Z,0.60
2018-05-01T03:57:02.838Z,0.50
2018-05-01T03:59:29.688Z,0.60
2018-05-01T04:01:56.538Z,0.60
2018-05-01T04:04:23.433Z,0.40
2018-05-01T04:06:50.301Z,0.50
2018-05-01T04:09:17.213Z,0.50
2018-05-01T04:11:44.157Z,0.47
2018-05-01T04:14:11.008Z,0.50
2018-05-01T04:16:37.857Z,0.70
2018-05-01T04:19:04.793Z,0.50
2018-05-01T04:21:31.652Z,0.50
2018-05-01T04:23:58.581Z,0.90
2018-05-01T04:26:25.475Z,0.50
2018-05-01T04:28:52.308Z,0.50
2018-05-01T04:31:19.168Z,0.50
2018-05-01T04:33:46.169Z,0.50
2018-05-01T04:36:13.053Z,0.50
2018-05-01T04:38:39.902Z,0.53
2018-05-01T04:41:06.754Z,0.50
2018-05-01T04:43:33.592Z,0.50
2018-05-01T04:46:00.462Z,0.47
2018-05-01T04:48:27.304Z,0.50
2018-05-01T04:50:54.205Z,0.50
2018-05-01T04:53:21.119Z,0.50
2018-05-01T04:55:48.063Z,0.50
2018-05-01T04:58:14.917Z,0.50
2018-05-01T05:00:41.790Z,0.40
2018-05-01T05:03:08.636Z,0.50
2018-05-01T05:05:35.490Z,0.40
2018-05-01T05:08:02.333Z,0.40
2018-05-01T05:10:29.209Z,0.40
2018-05-01T05:12:56.138Z,0.57
2018-05-01T05:15:23.076Z,0.50
2018-05-01T05:17:49.953Z,0.60
2018-05-01T05:20:16.868Z,0.70
2018-05-01T05:22:43.788Z,0.50
2018-05-01T05:25:10.657Z,0.50
2018-05-01T05:27:37.496Z,0.60
2018-05-01T05:30:04.345Z,0.53
2018-05-01T05:32:31.187Z,0.70
2018-05-01T05:34:58.148Z,0.50
2018-05-01T05:37:24.978Z,0.50
2018-05-01T05:39:51.832Z,0.50
2018-05-01T05:42:18.687Z,0.60
2018-05-01T05:44:45.536Z,1.20
2018-05-01T05:47:12.450Z,0.80
2018-05-01T05:49:39.302Z,0.50
2018-05-01T05:52:06.222Z,0.60
2018-05-01T05:54:33.060Z,0.57
2018-05-01T05:56:59.908Z,0.87
2018-05-01T05:59:26.856Z,0.47
2018-05-01T06:01:53.797Z,0.60
2018-05-01T06:04:20.650Z,0.70
2018-05-01T06:06:47.589Z,0.50
2018-05-01T06:09:14.559Z,0.60
2018-05-01T06:11:41.481Z,0.60
2018-05-01T06:14:08.322Z,0.70
2018-05-01T06:16:35.176Z,0.60
2018-05-01T06:19:02.109Z,0.60
2018-05-01T06:21:28.964Z,0.60
2018-05-01T06:23:55.889Z,0.60
2018-05-01T06:26:22.737Z,0.60
2018-05-01T06:28:49.682Z,0.63
2018-05-01T06:31:16.613Z,0.60
2018-05-01T06:33:43.381Z,0.73
2018-05-01T06:36:10.226Z,0.70
2018-05-01T06:38:37.153Z,0.80
2018-05-01T06:41:04.001Z,0.80
2018-05-01T06:43:30.936Z,0.90
2018-05-01T06:45:57.790Z,0.90
2018-05-01T06:48:24.728Z,1.07
2018-05-01T06:50:51.746Z,1.27
2018-05-01T06:53:18.426Z,1.10
2018-05-01T06:55:45.357Z,1.30
2018-05-01T06:58:12.297Z,1.37
2018-05-01T07:00:39.161Z,1.30
2018-05-01T07:03:05.999Z,1.03
2018-05-01T07:05:32.933Z,1.73
2018-05-01T07:07:59.773Z,1.47
2018-05-01T07:10:26.616Z,1.80
2018-05-01T07:12:53.459Z,1.40
2018-05-01T07:15:20.397Z,1.60
2018-05-01T07:17:47.241Z,1.70
2018-05-01T07:20:14.189Z,1.60
2018-05-01T07:22:41.029Z,1.60
2018-05-01T07:25:07.881Z,1.80
2018-05-01T07:27:34.871Z,2.27
2018-05-01T07:30:01.770Z,1.87
2018-05-01T07:32:28.620Z,2.10
2018-05-01T07:34:55.544Z,2.77
2018-05-01T07:37:22.403Z,2.53
2018-05-01T07:39:49.241Z,2.90
2018-05-01T07:42:16.093Z,2.40
2018-05-01T07:44:42.938Z,2.37
2018-05-01T07:47:09.784Z,2.70
2018-05-01T07:49:36.633Z,2.47
2018-05-01T07:52:03.486Z,2.47
2018-05-01T07:54:30.337Z,2.80
2018-05-01T07:56:57.316Z,2.63
2018-05-01T07:59:24.153Z,2.10
2018-05-01T08:01:51.005Z,3.20
2018-05-01T08:04:17.861Z,3.37
2018-05-01T08:06:44.693Z,3.87
2018-05-01T08:09:11.636Z,3.53
2018-05-01T08:11:38.582Z,3.80
2018-05-01T08:14:05.430Z,3.53
2018-05-01T08:16:32.386Z,4.17
2018-05-01T08:18:59.217Z,3.23
2018-05-01T08:21:26.162Z,3.73
2018-05-01T08:23:53.005Z,3.43
2018-05-01T08:26:19.860Z,3.80
2018-05-01T08:28:46.699Z,3.57
2018-05-01T08:31:13.561Z,4.00
2018-05-01T08:33:40.404Z,3.40
2018-05-01T08:36:07.257Z,3.80
2018-05-01T08:38:34.169Z,3.57
2018-05-01T08:41:01.026Z,3.43
2018-05-01T08:43:27.860Z,4.10
2018-05-01T08:45:54.774Z,3.77
2018-05-01T08:48:21.621Z,4.17
2018-05-01T08:50:48.500Z,3.37
2018-05-01T08:53:15.817Z,4.33
2018-05-01T08:55:42.958Z,3.87
2018-05-01T08:58:11.788Z,6.00
2018-05-01T09:00:39.308Z,4.40
2018-05-01T09:03:06.135Z,4.30
2018-05-01T09:05:32.986Z,4.50
2018-05-01T09:07:59.820Z,3.20
2018-05-01T09:10:26.660Z,3.40
2018-05-01T09:12:53.525Z,3.00
2018-05-01T09:15:20.373Z,3.40
2018-05-01T09:17:47.367Z,3.57
2018-05-01T09:20:14.192Z,3.90
2018-05-01T09:22:41.106Z,3.60
2018-05-01T09:25:07.963Z,2.93
2018-05-01T09:27:34.912Z,2.90
2018-05-01T09:30:01.751Z,2.93
2018-05-01T09:32:28.682Z,3.80
2018-05-01T09:34:55.524Z,3.10
2018-05-01T09:37:22.388Z,3.13
2018-05-01T09:39:49.227Z,4.07
2018-05-01T09:42:16.083Z,3.27
2018-05-01T09:44:42.923Z,2.90
2018-05-01T09:47:09.829Z,3.00
2018-05-01T09:49:36.677Z,3.10
2018-05-01T09:52:03.626Z,4.10
2018-05-01T09:54:30.998Z,3.17
2018-05-01T09:56:58.429Z,3.33
2018-05-01T09:59:25.910Z,2.30
2018-05-01T10:01:53.277Z,2.80
2018-05-01T10:04:20.714Z,2.83
2018-05-01T10:06:48.105Z,2.40
2018-05-01T10:09:15.497Z,2.60
2018-05-01T10:11:42.883Z,3.50
2018-05-01T10:14:10.348Z,2.60
2018-05-01T10:16:37.736Z,2.90
2018-05-01T10:19:05.116Z,3.77
2018-05-01T10:21:32.504Z,3.87
2018-05-01T10:23:59.882Z,4.60
2018-05-01T10:26:27.298Z,4.93
2018-05-01T10:28:54.701Z,4.60
2018-05-01T10:31:22.109Z,5.10
2018-05-01T10:33:49.492Z,4.30
2018-05-01T10:36:16.883Z,4.40
2018-05-01T10:38:44.404Z,4.50
2018-05-01T10:41:11.774Z,5.10
2018-05-01T10:43:39.157Z,4.60
2018-05-01T10:46:06.629Z,5.10
2018-05-01T10:48:34.005Z,5.80
2018-05-01T10:51:01.408Z,6.60
2018-05-01T10:53:28.789Z,6.37
2018-05-01T10:55:56.169Z,6.57
2018-05-01T10:58:23.557Z,6.50
2018-05-01T11:00:50.933Z,6.10
2018-05-01T11:03:19.195Z,6.80
2018-05-01T11:05:46.589Z,6.33
2018-05-01T11:08:13.980Z,5.97
2018-05-01T11:10:41.400Z,6.40
2018-05-01T11:13:08.789Z,5.77
2018-05-01T11:15:36.221Z,5.60
2018-05-01T11:18:03.683Z,5.60
2018-05-01T11:20:31.128Z,6.10
2018-05-01T11:22:58.593Z,6.03
2018-05-01T11:25:26.057Z,5.07
2018-05-01T11:27:53.441Z,5.50
2018-05-01T11:30:20.854Z,5.80
2018-05-01T11:32:49.128Z,4.93
2018-05-01T11:35:16.580Z,5.10
2018-05-01T11:37:43.992Z,4.47
2018-05-01T11:40:11.401Z,5.23
2018-05-01T11:42:38.795Z,3.60
2018-05-01T11:45:06.222Z,4.70
2018-05-01T11:47:33.614Z,4.70
2018-05-01T11:50:01.022Z,4.03
2018-05-01T11:52:28.489Z,3.90
2018-05-01T11:54:55.869Z,3.27
2018-05-01T11:57:23.288Z,3.67
2018-05-01T11:59:50.672Z,4.50
2018-05-01T12:02:18.072Z,3.60
2018-05-01T12:04:45.453Z,2.90
2018-05-01T12:07:12.836Z,3.80
2018-05-01T12:09:40.234Z,3.73
2018-05-01T12:12:07.726Z,4.33
2018-05-01T12:14:35.111Z,3.10
2018-05-01T12:17:02.544Z,2.70
2018-05-01T12:19:29.998Z,3.67
2018-05-01T12:21:57.393Z,3.13
2018-05-01T12:24:24.794Z,2.83
2018-05-01T12:26:52.262Z,3.30
2018-05-01T12:29:19.710Z,3.33
2018-05-01T12:31:47.122Z,3.30
2018-05-01T12:34:14.552Z,3.70
2018-05-01T12:36:41.988Z,4.20
2018-05-01T12:39:09.433Z,4.00
2018-05-01T12:41:36.821Z,4.07
2018-05-01T12:44:04.209Z,4.27
2018-05-01T12:46:31.614Z,4.10
2018-05-01T12:48:59.019Z,3.97
2018-05-01T12:51:26.405Z,3.80
2018-05-01T12:53:53.961Z,3.63
2018-05-01T12:56:21.316Z,4.30
2018-05-01T12:58:48.738Z,4.20
2018-05-01T13:01:16.128Z,4.03
2018-05-01T13:03:43.596Z,4.47
2018-05-01T13:06:11.107Z,4.50
2018-05-01T13:08:38.406Z,3.83
2018-05-01T13:11:05.869Z,3.77
2018-05-01T13:13:33.325Z,2.80
2018-05-01T13:16:00.729Z,2.73
2018-05-01T13:18:28.139Z,3.40
2018-05-01T13:20:55.521Z,2.50
2018-05-01T13:23:22.920Z,3.57
2018-05-01T13:25:50.329Z,3.63
2018-05-01T13:28:17.721Z,4.13
2018-05-01T13:30:45.228Z,4.07
2018-05-01T13:33:12.625Z,3.03
2018-05-01T13:35:40.026Z,2.70
2018-05-01T13:38:07.526Z,3.30
2018-05-01T13:40:34.917Z,3.13
2018-05-01T13:43:02.356Z,2.80
2018-05-01T13:45:29.793Z,2.80
2018-05-01T13:47:57.245Z,3.20
2018-05-01T13:50:24.642Z,2.30
2018-05-01T13:52:52.029Z,2.40
2018-05-01T13:55:19.466Z,2.50
2018-05-01T13:57:46.894Z,2.93
2018-05-01T14:00:14.328Z,2.33
2018-05-01T14:02:41.745Z,2.97
2018-05-01T14:05:09.129Z,2.67
2018-05-01T14:07:36.565Z,2.40
2018-05-01T14:10:04.068Z,2.30
2018-05-01T14:12:31.457Z,2.73
2018-05-01T14:14:58.846Z,3.00
2018-05-01T14:17:26.251Z,2.63
2018-05-01T14:19:53.672Z,2.90
2018-05-01T14:22:21.077Z,2.93
2018-05-01T14:24:48.474Z,2.20
2018-05-01T14:27:15.956Z,3.10
2018-05-01T14:29:43.328Z,3.23
2018-05-01T14:32:10.725Z,2.73
2018-05-01T14:34:38.109Z,3.50
2018-05-01T14:37:05.514Z,3.90
2018-05-01T14:39:32.906Z,3.33
2018-05-01T14:42:00.456Z,2.97
2018-05-01T14:44:27.838Z,3.37
2018-05-01T14:46:55.226Z,3.10
2018-05-01T14:49:22.641Z,3.33
2018-05-01T14:51:50.034Z,3.10
2018-05-01T14:54:17.433Z,3.57
2018-05-01T14:56:44.920Z,3.30
2018-05-01T14:59:12.320Z,3.00
2018-05-01T15:01:39.831Z,3.40
2018-05-01T15:04:07.142Z,4.33
2018-05-01T15:06:34.840Z,3.80
2018-05-01T15:09:02.354Z,5.10
2018-05-01T15:11:29.705Z,4.40
2018-05-01T15:13:57.101Z,4.13
2018-05-01T15:16:24.485Z,3.40
2018-05-01T15:18:51.884Z,4.10
2018-05-01T15:21:19.393Z,4.57
2018-05-01T15:23:46.832Z,4.27
2018-05-01T15:26:14.293Z,4.77
2018-05-01T15:28:41.688Z,4.83
2018-05-01T15:31:09.192Z,4.70
2018-05-01T15:33:36.521Z,5.67
2018-05-01T15:36:04.018Z,5.30
2018-05-01T15:38:31.416Z,5.40
2018-05-01T15:40:58.833Z,5.10
2018-05-01T15:43:26.285Z,5.10
2018-05-01T15:45:53.679Z,5.70
2018-05-01T15:48:21.072Z,5.47
2018-05-01T15:50:48.563Z,5.40
2018-05-01T15:53:16.008Z,5.37
2018-05-01T15:55:43.401Z,5.00
2018-05-01T15:58:10.824Z,4.60
2018-05-01T16:00:38.385Z,4.60
2018-05-01T16:03:05.708Z,5.20
2018-05-01T16:05:33.101Z,5.03
2018-05-01T16:08:00.485Z,4.40
2018-05-01T16:10:27.887Z,4.60
2018-05-01T16:12:55.304Z,4.00
2018-05-01T16:15:22.713Z,4.43
2018-05-01T16:17:50.109Z,5.47
2018-05-01T16:20:17.503Z,4.67
2018-05-01T16:22:44.909Z,4.87
2018-05-01T16:25:12.324Z,4.60
2018-05-01T16:27:39.712Z,4.83
2018-05-01T16:30:07.114Z,4.23
2018-05-01T16:32:34.503Z,4.90
2018-05-01T16:35:01.993Z,4.40
2018-05-01T16:37:29.378Z,4.63
2018-05-01T16:39:56.773Z,4.70
2018-05-01T16:42:24.165Z,4.17
2018-05-01T16:44:51.585Z,4.40
2018-05-01T16:47:18.980Z,8.90
2018-05-01T16:49:46.392Z,6.03
2018-05-01T16:52:13.785Z,6.93
2018-05-01T16:54:41.184Z,4.23
2018-05-01T16:57:08.574Z,4.20
2018-05-01T16:59:36.119Z,3.97
2018-05-01T17:02:03.683Z,4.87
2018-05-01T17:04:31.238Z,4.73
2018-05-01T17:06:58.704Z,4.30
2018-05-01T17:09:26.207Z,3.40
2018-05-01T17:11:53.801Z,5.10
2018-05-01T17:14:21.413Z,4.67
2018-05-01T17:16:48.822Z,3.97
2018-05-01T17:19:16.217Z,6.50
2018-05-01T17:21:43.628Z,3.93
2018-05-01T17:24:11.131Z,3.90
2018-05-01T17:26:38.512Z,4.00
2018-05-01T17:29:06.042Z,3.03
2018-05-01T17:31:33.394Z,3.10
2018-05-01T17:34:00.817Z,3.23
2018-05-01T17:36:28.237Z,2.90
2018-05-01T17:38:55.644Z,3.17
2018-05-01T17:41:23.041Z,3.60
2018-05-01T17:43:50.447Z,2.67
2018-05-01T17:46:17.903Z,3.47
2018-05-01T17:48:45.341Z,3.27
2018-05-01T17:51:12.693Z,3.30
2018-05-01T17:53:40.089Z,3.00
2018-05-01T17:56:07.492Z,4.20
2018-05-01T17:58:34.912Z,2.77
2018-05-01T18:01:02.317Z,2.20
2018-05-01T18:03:29.795Z,2.90
2018-05-01T18:05:57.210Z,4.33
2018-05-01T18:08:24.620Z,12.70
2018-05-01T18:10:52.012Z,4.53
2018-05-01T18:13:19.428Z,3.97
2018-05-01T18:15:46.821Z,3.00
2018-05-01T18:18:14.230Z,2.20
2018-05-01T18:20:41.683Z,2.17
2018-05-01T18:23:09.060Z,2.00
2018-05-01T18:25:36.464Z,2.00
2018-05-01T18:28:03.844Z,2.00
2018-05-01T18:30:31.248Z,2.00
2018-05-01T18:32:58.630Z,2.40
2018-05-01T18:35:26.033Z,2.73
2018-05-01T18:37:53.413Z,2.40
2018-05-01T18:40:20.824Z,2.03
2018-05-01T18:42:48.213Z,1.87
2018-05-01T18:45:15.636Z,1.50
2018-05-01T18:47:43.023Z,2.70
2018-05-01T18:50:10.419Z,1.50
2018-05-01T18:52:37.804Z,1.60
2018-05-01T18:55:05.198Z,1.97
2018-05-01T18:57:32.595Z,1.60
2018-05-01T19:00:00.070Z,1.70
2018-05-01T19:02:27.469Z,1.57
2018-05-01T19:04:54.873Z,1.80
2018-05-01T19:07:22.265Z,2.30
2018-05-01T19:09:49.673Z,2.00
2018-05-01T19:12:17.084Z,1.87
2018-05-01T19:14:44.478Z,2.33
2018-05-01T19:17:11.861Z,2.77
2018-05-01T19:19:39.331Z,2.77
2018-05-01T19:22:06.733Z,2.87
2018-05-01T19:24:34.407Z,2.40
2018-05-01T19:27:01.787Z,1.70
2018-05-01T19:29:29.206Z,1.50
2018-05-01T19:31:56.601Z,1.43
2018-05-01T19:34:24.098Z,2.70
2018-05-01T19:36:51.396Z,1.50
2018-05-01T19:39:18.841Z,1.60
2018-05-01T19:41:46.288Z,1.80
2018-05-01T19:44:13.682Z,1.90
2018-05-01T19:46:41.094Z,2.10
2018-05-01T19:49:08.773Z,2.03
2018-05-01T19:51:36.221Z,4.27
2018-05-01T19:54:03.678Z,7.60
2018-05-01T19:56:31.076Z,6.10
2018-05-01T19:58:58.493Z,5.30
2018-05-01T20:01:25.937Z,3.20
2018-05-01T20:03:53.358Z,4.60
2018-05-01T20:06:20.758Z,4.13
2018-05-01T20:08:48.260Z,2.20
2018-05-01T20:11:15.561Z,1.73
2018-05-01T20:13:42.950Z,1.30
2018-05-01T20:16:10.338Z,1.83
2018-05-01T20:18:37.733Z,2.20
2018-05-01T20:21:05.137Z,1.67
2018-05-01T20:23:32.517Z,1.70
2018-05-01T20:25:59.917Z,3.33
2018-05-01T20:28:27.301Z,4.20
2018-05-01T20:30:54.704Z,5.80
2018-05-01T20:33:22.097Z,6.00
2018-05-01T20:35:49.507Z,3.93
2018-05-01T20:38:16.867Z,3.40
2018-05-01T20:40:44.353Z,2.27
2018-05-01T20:43:11.737Z,3.10
2018-05-01T20:45:39.149Z,2.63
2018-05-01T20:48:06.536Z,2.23
2018-05-01T20:50:33.917Z,1.97
2018-05-01T20:53:01.338Z,1.60
2018-05-01T20:55:28.733Z,2.00
2018-05-01T20:57:56.126Z,3.47
2018-05-01T21:00:23.517Z,2.70
2018-05-01T21:02:51.120Z,4.30
2018-05-01T21:05:18.605Z,2.97
2018-05-01T21:07:46.013Z,2.40
2018-05-01T21:10:13.404Z,3.33
2018-05-01T21:12:40.809Z,8.50
2018-05-01T21:15:08.326Z,6.00
2018-05-01T21:17:35.733Z,3.80
2018-05-01T21:20:03.116Z,4.40
2018-05-01T21:22:30.509Z,4.97
2018-05-01T21:24:57.910Z,5.67
2018-05-01T21:27:25.305Z,4.30
2018-05-01T21:29:52.713Z,5.70
2018-05-01T21:32:20.097Z,5.43
2018-05-01T21:34:47.578Z,5.10
2018-05-01T21:37:15.052Z,4.93
2018-05-01T21:39:42.445Z,4.77
2018-05-01T21:42:09.861Z,5.00
2018-05-01T21:44:37.273Z,4.50
2018-05-01T21:47:04.679Z,4.87
2018-05-01T21:49:32.062Z,3.97
2018-05-01T21:51:59.482Z,3.67
2018-05-01T21:54:26.872Z,4.37
2018-05-01T21:56:54.261Z,3.90
2018-05-01T21:59:21.741Z,4.37
2018-05-01T22:01:49.147Z,4.00
2018-05-01T22:04:16.672Z,3.60
2018-05-01T22:06:44.029Z,3.60
2018-05-01T22:09:11.418Z,4.33
2018-05-01T22:11:38.808Z,3.93
2018-05-01T22:14:06.265Z,4.30
2018-05-01T22:16:33.655Z,4.10
2018-05-01T22:19:01.049Z,4.03
2018-05-01T22:21:28.447Z,4.20
2018-05-01T22:23:55.850Z,3.90
2018-05-01T22:26:23.240Z,3.27
2018-05-01T22:28:50.715Z,3.43
2018-05-01T22:31:18.097Z,3.40
2018-05-01T22:33:45.502Z,3.57
2018-05-01T22:36:12.889Z,2.80
2018-05-01T22:38:40.305Z,3.10
2018-05-01T22:41:07.725Z,3.00
2018-05-01T22:43:35.105Z,3.47
2018-05-01T22:46:02.513Z,3.43
2018-05-01T22:48:29.903Z,2.97
2018-05-01T22:50:57.289Z,2.80
2018-05-01T22:53:24.748Z,2.90
2018-05-01T22:55:52.158Z,2.80
2018-05-01T22:58:19.544Z,2.47
2018-05-01T23:00:46.949Z,3.10
2018-05-01T23:03:14.329Z,3.30
2018-05-01T23:05:41.741Z,2.57
2018-05-01T23:08:09.120Z,3.20
2018-05-01T23:10:36.518Z,2.33
2018-05-01T23:13:03.918Z,2.87
2018-05-01T23:15:31.306Z,2.63
2018-05-01T23:17:58.765Z,3.30
2018-05-01T23:20:26.157Z,2.67
2018-05-01T23:22:53.555Z,2.83
2018-05-01T23:25:20.978Z,2.47
2018-05-01T23:27:48.361Z,2.80
2018-05-01T23:30:15.777Z,2.90
2018-05-01T23:32:43.188Z,2.37
2018-05-01T23:35:10.601Z,2.50
2018-05-01T23:37:37.981Z,2.57
2018-05-01T23:40:05.361Z,2.20
2018-05-01T23:42:32.837Z,2.53
2018-05-01T23:45:00.281Z,2.57
2018-05-01T23:47:27.681Z,2.50
2018-05-01T23:49:55.061Z,3.50
2018-05-01T23:52:22.449Z,3.50
2018-05-01T23:54:49.908Z,3.40
2018-05-01T23:57:17.297Z,3.80
2018-05-01T23:59:44.684Z,3.37
